Time;durP1;ratioP1;P1;durP2;ratioP2;P2;SDS_P1;SDS_P2;PMS_P1;PMS_P2;Temp;Humidity;BMP_temperature;BMP_pressure;BME280_temperature;BME280_humidity;BME280_pressure;Samples;Min_cycle;Max_cycle;Signal;HPM_P1;HPM_P2
2022/07/25 00:00:10;;;;;;;13.00;11.90;;;20.90;99.90;;;;;;4943319;28;20565;-92
2022/07/25 00:02:35;;;;;;;13.37;12.30;;;20.90;99.90;;;;;;4935572;28;20183;-91
2022/07/25 00:05:01;;;;;;;13.40;12.23;;;20.90;99.90;;;;;;4931413;28;20434;-91
2022/07/25 00:07:27;;;;;;;13.23;12.10;;;20.90;99.90;;;;;;4929772;28;20815;-90
2022/07/25 00:09:53;;;;;;;14.17;12.97;;;20.80;99.90;;;;;;4922638;28;20332;-91
2022/07/25 00:12:19;;;;;;;12.67;11.57;;;20.70;99.90;;;;;;4930060;28;20547;-91
2022/07/25 00:14:45;;;;;;;13.43;12.13;;;20.70;99.90;;;;;;4924950;28;20498;-92
2022/07/25 00:17:10;;;;;;;12.67;11.57;;;20.60;99.90;;;;;;4930418;28;20965;-91
2022/07/25 00:19:37;;;;;;;13.63;12.43;;;20.60;99.90;;;;;;4937361;28;20219;-91
2022/07/25 00:22:02;;;;;;;12.77;11.67;;;20.40;99.90;;;;;;4932130;28;20190;-91
2022/07/25 00:24:28;;;;;;;12.60;11.60;;;20.40;99.90;;;;;;4934604;28;21539;-91
2022/07/25 00:26:53;;;;;;;12.57;11.47;;;20.50;99.90;;;;;;4930609;28;20749;-91
2022/07/25 00:29:19;;;;;;;14.17;12.97;;;20.40;99.90;;;;;;4922727;28;20190;-91
2022/07/25 00:31:44;;;;;;;13.27;12.10;;;20.30;99.90;;;;;;4934441;28;20182;-92
2022/07/25 00:34:10;;;;;;;13.73;12.63;;;20.10;99.90;;;;;;4926583;28;20312;-91
2022/07/25 00:36:36;;;;;;;12.63;11.73;;;20.10;99.90;;;;;;4920680;28;20776;-91
2022/07/25 00:39:01;;;;;;;13.83;12.50;;;20.10;99.90;;;;;;4929871;28;20223;-91
2022/07/25 00:41:27;;;;;;;12.73;11.73;;;20.00;99.90;;;;;;4926032;28;21213;-91
2022/07/25 00:43:52;;;;;;;13.83;12.83;;;20.10;99.90;;;;;;4919650;28;20923;-90
2022/07/25 00:46:18;;;;;;;12.60;11.50;;;20.30;99.90;;;;;;4921916;28;20198;-91
2022/07/25 00:48:43;;;;;;;13.23;12.00;;;20.30;99.90;;;;;;4934171;28;20537;-91
2022/07/25 00:51:09;;;;;;;12.07;11.07;;;20.30;99.90;;;;;;4926279;28;20920;-92
2022/07/25 00:53:36;;;;;;;12.43;11.50;;;20.20;99.90;;;;;;4923777;28;20313;-90
2022/07/25 00:56:03;;;;;;;12.93;11.93;;;20.20;99.90;;;;;;4926668;28;20486;-90
2022/07/25 00:58:28;;;;;;;12.57;11.50;;;20.20;99.90;;;;;;4922671;28;20591;-91
2022/07/25 01:00:54;;;;;;;13.10;12.07;;;20.20;99.90;;;;;;4921222;28;20555;-90
2022/07/25 01:03:20;;;;;;;12.53;11.53;;;20.10;99.90;;;;;;4931611;28;20780;-90
2022/07/25 01:05:45;;;;;;;13.80;12.67;;;20.20;99.90;;;;;;4923910;28;20183;-91
2022/07/25 01:08:11;;;;;;;15.60;14.10;;;20.20;99.90;;;;;;4925470;28;20282;-91
2022/07/25 01:10:37;;;;;;;14.80;13.50;;;20.40;99.90;;;;;;4931044;28;20214;-93
2022/07/25 01:13:03;;;;;;;13.40;12.20;;;20.30;99.90;;;;;;4924051;28;20286;-92
2022/07/25 01:15:29;;;;;;;13.50;12.40;;;20.30;99.90;;;;;;4932540;28;20446;-93
2022/07/25 01:17:55;;;;;;;13.13;11.80;;;20.20;99.90;;;;;;4930832;28;20435;-91
2022/07/25 01:20:22;;;;;;;14.17;12.80;;;20.20;99.90;;;;;;4940469;28;20198;-89
2022/07/25 01:22:48;;;;;;;13.90;12.80;;;20.10;99.90;;;;;;4938059;28;20201;-90
2022/07/25 01:25:14;;;;;;;13.20;12.10;;;20.00;99.90;;;;;;4940916;28;20447;-92
2022/07/25 01:27:41;;;;;;;13.00;12.00;;;20.00;99.90;;;;;;4931261;28;21071;-90
2022/07/25 01:30:09;;;;;;;13.80;12.50;;;20.00;99.90;;;;;;4931826;28;20465;-90
2022/07/25 01:32:35;;;;;;;13.07;11.97;;;19.90;99.90;;;;;;4926250;28;20807;-91
2022/07/25 01:35:01;;;;;;;14.67;13.37;;;19.80;99.90;;;;;;4961720;28;20490;-91
2022/07/25 01:37:26;;;;;;;13.37;12.37;;;19.80;99.90;;;;;;4927921;28;20195;-92
2022/07/25 01:39:52;;;;;;;14.43;13.33;;;19.70;99.90;;;;;;4929759;28;20528;-91
2022/07/25 01:42:17;;;;;;;15.27;13.87;;;19.70;99.90;;;;;;4926612;28;20337;-92
2022/07/25 01:44:44;;;;;;;14.40;13.23;;;19.70;99.90;;;;;;4928503;28;20290;-92
2022/07/25 01:47:09;;;;;;;14.03;12.93;;;19.70;99.90;;;;;;4929502;28;20286;-91
2022/07/25 01:49:35;;;;;;;14.37;13.00;;;19.60;99.90;;;;;;4945677;28;20469;-91
2022/07/25 01:52:00;;;;;;;13.03;11.83;;;19.60;99.90;;;;;;4942478;28;20179;-91
2022/07/25 01:54:26;;;;;;;13.60;12.20;;;19.60;99.90;;;;;;4923699;28;21565;-93
2022/07/25 01:56:51;;;;;;;14.03;12.80;;;19.50;99.90;;;;;;4927487;28;20805;-91
2022/07/25 01:59:17;;;;;;;14.60;13.27;;;19.60;99.90;;;;;;4927189;28;20691;-91
2022/07/25 02:01:43;;;;;;;13.70;12.50;;;19.60;99.90;;;;;;4925335;28;23188;-90
2022/07/25 02:04:08;;;;;;;14.00;12.80;;;19.50;99.90;;;;;;4928318;28;20272;-91
2022/07/25 02:06:34;;;;;;;14.17;13.00;;;19.50;99.90;;;;;;4936869;28;20222;-91
2022/07/25 02:09:01;;;;;;;14.10;12.80;;;19.50;99.90;;;;;;4958058;28;20203;-91
2022/07/25 02:11:27;;;;;;;13.07;11.87;;;19.50;99.90;;;;;;4928617;28;20534;-91
2022/07/25 02:13:52;;;;;;;13.30;12.20;;;19.50;99.90;;;;;;4933349;28;20489;-91
2022/07/25 02:16:18;;;;;;;13.90;12.60;;;19.40;99.90;;;;;;4927047;28;20183;-90
2022/07/25 02:18:44;;;;;;;14.03;12.87;;;19.40;99.90;;;;;;4954315;28;20513;-90
2022/07/25 02:21:10;;;;;;;13.73;12.53;;;19.40;99.90;;;;;;4931725;28;20187;-92
2022/07/25 02:23:36;;;;;;;13.63;12.53;;;19.40;99.90;;;;;;4925677;28;20885;-91
2022/07/25 02:26:02;;;;;;;13.93;12.63;;;19.40;99.90;;;;;;4929199;28;20637;-92
2022/07/25 02:28:27;;;;;;;13.63;12.53;;;19.30;99.90;;;;;;4918604;28;20449;-92
2022/07/25 02:30:53;;;;;;;13.77;12.67;;;19.30;99.90;;;;;;4924801;28;20966;-92
2022/07/25 02:33:18;;;;;;;12.47;11.47;;;19.20;99.90;;;;;;4938555;28;20241;-92
2022/07/25 02:35:44;;;;;;;13.50;12.40;;;19.30;99.90;;;;;;4923840;28;20216;-92
2022/07/25 02:38:10;;;;;;;15.03;13.57;;;19.30;99.90;;;;;;4934580;28;20183;-91
2022/07/25 02:40:35;;;;;;;14.10;12.93;;;19.30;99.90;;;;;;4925183;28;20827;-91
2022/07/25 02:43:01;;;;;;;13.27;12.17;;;19.30;99.90;;;;;;4922313;28;20953;-91
2022/07/25 02:45:26;;;;;;;13.90;12.80;;;19.30;99.90;;;;;;4917249;28;20652;-92
2022/07/25 02:47:52;;;;;;;13.73;12.63;;;19.10;99.90;;;;;;4923391;28;20195;-93
2022/07/25 02:50:17;;;;;;;13.43;12.33;;;19.10;99.90;;;;;;4929040;28;20187;-92
2022/07/25 02:52:43;;;;;;;13.80;12.30;;;19.10;99.90;;;;;;4948573;28;20191;-91
2022/07/25 02:55:10;;;;;;;13.50;12.40;;;19.00;99.90;;;;;;4928885;28;20223;-91
2022/07/25 02:57:35;;;;;;;13.90;12.77;;;19.00;99.90;;;;;;4937569;28;20254;-92
2022/07/25 03:00:01;;;;;;;13.57;12.47;;;19.00;99.90;;;;;;4937177;28;20504;-92
2022/07/25 03:02:27;;;;;;;13.47;12.27;;;19.00;99.90;;;;;;4923259;28;20654;-91
2022/07/25 03:04:52;;;;;;;13.63;12.37;;;19.00;99.90;;;;;;4928943;28;20198;-90
2022/07/25 03:07:18;;;;;;;13.80;12.60;;;18.90;99.90;;;;;;4948292;28;20191;-92
2022/07/25 03:09:43;;;;;;;14.37;13.23;;;18.90;99.90;;;;;;4928365;28;20190;-91
2022/07/25 03:12:09;;;;;;;13.47;12.37;;;18.90;99.90;;;;;;4929120;28;20234;-91
2022/07/25 03:14:34;;;;;;;13.63;12.47;;;18.90;99.90;;;;;;4927344;28;20723;-93
2022/07/25 03:17:00;;;;;;;14.57;13.37;;;19.00;99.90;;;;;;4926304;28;21171;-90
2022/07/25 03:19:25;;;;;;;13.47;12.37;;;18.90;99.90;;;;;;4942425;28;20820;-91
2022/07/25 03:21:51;;;;;;;13.07;11.97;;;18.70;99.90;;;;;;4927718;28;20183;-91
2022/07/25 03:24:17;;;;;;;14.17;12.77;;;18.70;99.90;;;;;;4934880;28;20200;-92
2022/07/25 03:26:43;;;;;;;13.60;12.13;;;18.70;99.90;;;;;;4923947;28;21384;-91
2022/07/25 03:29:09;;;;;;;13.23;12.00;;;18.80;99.90;;;;;;4924695;28;20470;-93
2022/07/25 03:31:34;;;;;;;13.50;12.30;;;18.80;99.90;;;;;;4924551;28;20241;-93
2022/07/25 03:34:00;;;;;;;13.83;12.43;;;18.80;99.90;;;;;;4926624;28;20303;-93
2022/07/25 03:36:25;;;;;;;14.73;13.37;;;18.80;99.90;;;;;;4924363;28;20194;-91
2022/07/25 03:38:51;;;;;;;13.73;12.40;;;18.80;99.90;;;;;;4929890;28;20195;-92
2022/07/25 03:41:16;;;;;;;14.00;12.63;;;18.80;99.90;;;;;;4925991;28;20183;-91
2022/07/25 03:43:43;;;;;;;15.00;13.60;;;18.70;99.90;;;;;;4924676;28;20202;-92
2022/07/25 03:46:08;;;;;;;13.23;12.00;;;18.70;99.90;;;;;;4923398;28;21929;-92
2022/07/25 03:48:34;;;;;;;13.80;12.50;;;18.60;99.90;;;;;;4934523;28;20435;-90
2022/07/25 03:50:59;;;;;;;15.67;14.23;;;18.60;99.90;;;;;;4926584;28;20184;-91
2022/07/25 03:53:25;;;;;;;13.50;12.33;;;18.70;99.90;;;;;;4934465;28;20217;-91
2022/07/25 03:55:50;;;;;;;14.83;12.57;;;18.60;99.90;;;;;;4939637;28;20198;-91
2022/07/25 03:58:16;;;;;;;14.33;12.87;;;18.70;99.90;;;;;;4935421;28;20550;-93
2022/07/25 04:00:41;;;;;;;13.13;11.83;;;18.80;99.90;;;;;;4935990;28;20187;-91
2022/07/25 04:03:07;;;;;;;13.73;12.70;;;18.90;99.90;;;;;;4937600;28;20210;-93
2022/07/25 04:05:32;;;;;;;14.50;13.00;;;18.90;99.90;;;;;;4925179;28;20273;-91
2022/07/25 04:07:58;;;;;;;13.10;11.90;;;18.90;99.90;;;;;;4923303;28;20180;-89
2022/07/25 04:10:23;;;;;;;14.17;12.87;;;18.80;99.90;;;;;;4930709;28;20190;-92
2022/07/25 04:12:49;;;;;;;13.73;12.63;;;18.60;99.90;;;;;;4926841;28;20183;-91
2022/07/25 04:15:15;;;;;;;13.57;12.37;;;18.60;99.90;;;;;;4928029;28;20215;-91
2022/07/25 04:17:41;;;;;;;13.73;12.53;;;18.70;99.90;;;;;;4949203;28;20555;-92
2022/07/25 04:20:07;;;;;;;13.40;12.20;;;18.80;99.90;;;;;;4925497;28;20459;-89
2022/07/25 04:22:32;;;;;;;13.17;11.87;;;18.80;99.90;;;;;;4927239;28;20191;-90
2022/07/25 04:24:58;;;;;;;15.70;13.80;;;18.80;99.90;;;;;;4923901;28;20207;-90
2022/07/25 04:27:23;;;;;;;15.80;12.73;;;18.90;99.90;;;;;;4925745;28;20578;-90
2022/07/25 04:29:49;;;;;;;15.17;13.83;;;18.80;99.90;;;;;;4939346;28;20184;-90
2022/07/25 04:32:15;;;;;;;12.90;11.90;;;18.80;99.90;;;;;;4930303;28;20250;-90
2022/07/25 04:34:42;;;;;;;15.80;14.43;;;18.90;99.90;;;;;;4931459;28;20219;-91
2022/07/25 04:37:08;;;;;;;15.20;13.90;;;19.00;99.90;;;;;;4927868;28;20485;-90
2022/07/25 04:39:33;;;;;;;16.20;14.80;;;19.20;99.90;;;;;;4940530;28;20470;-90
2022/07/25 04:41:59;;;;;;;16.57;15.17;;;19.30;99.90;;;;;;4925245;28;20200;-89
2022/07/25 04:44:24;;;;;;;16.17;14.77;;;19.20;99.90;;;;;;4931271;28;20187;-89
2022/07/25 04:46:50;;;;;;;16.67;15.20;;;19.30;99.90;;;;;;4923878;28;20191;-89
2022/07/25 04:49:15;;;;;;;16.80;15.50;;;19.30;99.90;;;;;;4933732;28;20531;-90
2022/07/25 04:51:41;;;;;;;15.57;14.10;;;19.30;99.90;;;;;;4929535;28;20277;-90
2022/07/25 04:54:08;;;;;;;15.43;14.10;;;19.30;99.90;;;;;;4941358;28;20229;-90
2022/07/25 04:56:33;;;;;;;16.17;14.80;;;19.40;99.90;;;;;;4927927;28;20795;-89
2022/07/25 04:58:59;;;;;;;15.47;13.97;;;19.40;99.90;;;;;;4928909;28;20813;-88
2022/07/25 05:01:24;;;;;;;15.73;14.43;;;19.30;99.90;;;;;;4919229;28;20191;-90
2022/07/25 06:52:30;;;;;;;14.87;13.57;;;23.40;99.90;;;;;;4934677;28;20483;-92
2022/07/25 06:54:56;;;;;;;14.43;13.13;;;23.40;99.90;;;;;;4926846;28;20480;-92
2022/07/25 06:57:22;;;;;;;13.17;12.17;;;23.50;99.90;;;;;;4929103;28;20179;-91
2022/07/25 06:59:47;;;;;;;13.93;12.83;;;23.50;99.90;;;;;;4929581;28;20324;-91
2022/07/25 07:02:13;;;;;;;14.23;13.10;;;23.60;99.90;;;;;;4931559;28;20445;-91
2022/07/25 07:04:39;;;;;;;13.77;12.67;;;23.60;99.90;;;;;;4929615;28;20195;-92
2022/07/25 07:07:04;;;;;;;13.73;12.63;;;23.70;99.90;;;;;;4952729;28;20728;-91
2022/07/25 07:09:30;;;;;;;14.67;13.57;;;23.80;99.90;;;;;;4932891;28;20194;-91
2022/07/25 07:11:56;;;;;;;13.87;12.80;;;23.80;99.90;;;;;;4941161;28;23551;-91
2022/07/25 07:14:21;;;;;;;13.80;12.80;;;23.80;99.90;;;;;;4937509;28;20460;-91
2022/07/25 07:16:47;;;;;;;14.97;13.60;;;23.80;99.90;;;;;;4938071;28;20191;-92
2022/07/25 07:19:13;;;;;;;13.90;12.70;;;23.90;99.90;;;;;;4930786;28;20191;-91
2022/07/25 07:21:39;;;;;;;14.80;13.70;;;24.00;99.90;;;;;;4939880;28;20218;-91
2022/07/25 07:24:06;;;;;;;14.83;13.73;;;24.20;99.90;;;;;;4953516;28;20869;-91
2022/07/25 07:26:32;;;;;;;14.87;13.67;;;24.30;99.90;;;;;;4931599;28;20454;-91
2022/07/25 07:28:58;;;;;;;14.60;13.40;;;24.40;99.90;;;;;;4972961;28;20631;-92
2022/07/25 07:31:23;;;;;;;14.80;13.70;;;24.50;99.90;;;;;;4942410;28;22321;-91
2022/07/25 07:33:49;;;;;;;14.47;13.13;;;24.60;99.90;;;;;;4968689;28;20214;-92
2022/07/25 07:36:18;;;;;;;15.53;14.10;;;24.80;99.90;;;;;;4934075;28;20249;-92
2022/07/25 07:38:47;;;;;;;14.40;13.30;;;25.10;99.90;;;;;;4937563;28;20226;-90
2022/07/25 07:41:18;;;;;;;14.27;13.17;;;25.20;99.90;;;;;;4949792;28;20545;-91
2022/07/25 07:43:44;;;;;;;13.93;12.83;;;25.40;99.90;;;;;;4950176;28;20453;-91
2022/07/25 07:46:10;;;;;;;13.70;12.60;;;25.50;99.90;;;;;;4929998;28;20455;-92
2022/07/25 07:48:50;;;;;;;13.77;12.87;;;25.60;99.90;;;;;;4931892;28;20446;-94
2022/07/25 07:51:16;;;;;;;14.97;13.77;;;25.80;99.90;;;;;;4936534;28;20293;-93
2022/07/25 07:56:25;;;;;;;14.03;13.00;;;26.10;99.90;;;;;;4930906;28;20591;-94
2022/07/25 07:58:54;;;;;;;15.33;14.20;;;26.20;99.90;;;;;;4948251;28;20526;-95
2022/07/25 08:01:19;;;;;;;14.20;13.07;;;26.20;99.90;;;;;;4959312;28;20180;-93
2022/07/25 08:03:45;;;;;;;16.17;14.97;;;26.30;99.80;;;;;;4967799;28;20426;-94
2022/07/25 08:06:11;;;;;;;15.33;14.03;;;26.30;99.90;;;;;;4941336;28;20203;-94
2022/07/25 08:08:36;;;;;;;13.70;12.40;;;26.50;99.60;;;;;;4966937;28;20221;-92
2022/07/25 08:11:02;;;;;;;13.80;12.77;;;26.60;97.70;;;;;;4949613;28;20259;-95
2022/07/25 08:13:30;;;;;;;14.53;13.33;;;26.70;98.50;;;;;;4921368;28;20210;-93
2022/07/25 08:16:01;;;;;;;13.60;12.60;;;26.90;97.20;;;;;;4959588;28;20648;-93
2022/07/25 08:18:31;;;;;;;14.20;13.00;;;26.90;97.00;;;;;;4947936;28;20454;-95
2022/07/25 08:21:04;;;;;;;13.90;12.80;;;27.10;96.50;;;;;;4952659;28;20460;-94
2022/07/25 08:23:30;;;;;;;13.80;12.80;;;27.20;97.00;;;;;;4955336;28;20447;-93
2022/07/25 08:25:56;;;;;;;13.83;12.73;;;27.30;97.10;;;;;;4935887;28;21132;-93
2022/07/25 08:28:22;;;;;;;13.47;12.47;;;27.40;96.70;;;;;;4954525;28;20435;-93
2022/07/25 08:30:47;;;;;;;14.57;13.30;;;27.60;96.50;;;;;;4959000;28;20234;-94
2022/07/25 08:33:14;;;;;;;15.10;13.97;;;27.70;96.40;;;;;;4924745;28;20183;-94
2022/07/25 08:35:48;;;;;;;13.13;12.10;;;27.80;96.20;;;;;;4930673;28;20567;-95
2022/07/25 08:38:15;;;;;;;14.00;13.00;;;27.90;96.20;;;;;;4930320;28;20442;-95
2022/07/25 08:40:40;;;;;;;14.73;13.73;;;28.00;95.40;;;;;;4925107;28;20447;-94
2022/07/25 08:43:12;;;;;;;14.20;13.10;;;28.00;95.60;;;;;;4929423;28;21320;-96
2022/07/25 08:45:52;;;;;;;14.10;13.10;;;28.10;95.90;;;;;;4927912;28;20189;-93
2022/07/25 08:48:37;;;;;;;13.40;12.50;;;28.10;95.60;;;;;;4932466;28;20442;-96
2022/07/25 08:51:06;;;;;;;14.07;13.07;;;28.30;95.90;;;;;;4955974;28;20465;-94
2022/07/25 08:53:35;;;;;;;15.20;13.77;;;28.50;95.10;;;;;;4929602;28;20596;-94
2022/07/25 08:56:06;;;;;;;14.60;13.50;;;28.70;95.10;;;;;;4933852;28;20496;-93
2022/07/25 08:58:32;;;;;;;14.43;13.40;;;28.80;94.50;;;;;;4933540;28;20446;-94
2022/07/25 09:00:57;;;;;;;14.03;13.03;;;28.90;93.80;;;;;;4935442;28;20456;-92
2022/07/25 09:03:25;;;;;;;13.67;12.70;;;28.90;93.50;;;;;;4925584;28;20249;-93
2022/07/25 09:05:51;;;;;;;14.83;13.63;;;28.90;93.50;;;;;;4924785;28;20183;-93
2022/07/25 09:08:17;;;;;;;14.17;13.20;;;29.20;93.40;;;;;;4918119;28;20449;-93
2022/07/25 09:10:47;;;;;;;14.47;13.47;;;29.20;92.60;;;;;;4936289;28;20454;-93
2022/07/25 09:13:15;;;;;;;13.60;12.40;;;29.30;92.90;;;;;;4957151;28;20263;-93
2022/07/25 09:15:45;;;;;;;13.70;12.70;;;29.40;93.10;;;;;;4924987;28;20999;-93
2022/07/25 09:18:13;;;;;;;11.83;11.03;;;29.50;92.30;;;;;;4945850;28;20755;-94
2022/07/25 09:20:50;;;;;;;12.10;11.20;;;29.70;90.60;;;;;;4930265;28;20788;-94
2022/07/25 09:23:36;;;;;;;11.50;10.70;;;29.90;90.60;;;;;;4953880;28;21001;-95
2022/07/25 09:26:06;;;;;;;12.03;11.17;;;30.10;86.10;;;;;;4934031;28;20434;-95
2022/07/25 09:28:41;;;;;;;11.37;10.47;;;30.30;85.20;;;;;;4948046;28;20443;-94
2022/07/25 09:31:08;;;;;;;11.23;10.37;;;30.30;84.30;;;;;;4938166;28;20449;-96
2022/07/25 09:33:50;;;;;;;10.40;9.50;;;30.50;82.60;;;;;;4950025;28;20430;-95
2022/07/25 09:36:16;;;;;;;10.23;9.63;;;30.60;80.00;;;;;;4951687;28;20458;-94
2022/07/25 09:39:01;;;;;;;9.70;9.00;;;30.80;78.60;;;;;;4925986;28;21016;-93
2022/07/25 09:41:35;;;;;;;10.10;9.20;;;30.70;74.50;;;;;;4947526;28;20190;-95
2022/07/25 09:44:00;;;;;;;11.07;10.27;;;30.50;73.70;;;;;;4971473;28;20459;-95
2022/07/25 09:46:35;;;;;;;9.87;9.03;;;30.70;76.70;;;;;;4932164;28;20447;-96
2022/07/25 09:49:00;;;;;;;10.70;10.00;;;30.80;77.30;;;;;;4942836;28;20329;-95
2022/07/25 09:51:27;;;;;;;10.43;9.43;;;31.10;74.00;;;;;;4925260;28;20461;-95
2022/07/25 09:53:52;;;;;;;10.93;10.20;;;31.10;71.80;;;;;;4933969;28;20206;-93
2022/07/25 09:56:18;;;;;;;11.10;10.30;;;31.10;72.00;;;;;;4963899;28;20602;-93
2022/07/25 09:58:43;;;;;;;10.57;9.87;;;31.00;73.80;;;;;;4959533;28;20231;-92
2022/07/25 10:01:15;;;;;;;11.33;10.43;;;31.20;74.40;;;;;;4919116;28;20655;-92
2022/07/25 10:04:23;;;;;;;11.53;10.77;;;31.30;73.60;;;;;;4927536;28;20261;-94
2022/07/25 10:07:03;;;;;;;10.57;9.77;;;31.40;73.30;;;;;;4919165;28;20446;-93
2022/07/25 10:09:31;;;;;;;10.43;9.70;;;31.50;72.20;;;;;;4926204;28;20450;-94
2022/07/25 10:12:10;;;;;;;10.80;10.00;;;31.70;72.80;;;;;;4926083;28;20442;-92
2022/07/25 10:14:36;;;;;;;11.60;10.80;;;32.00;70.50;;;;;;4930519;28;20477;-94
2022/07/25 10:17:03;;;;;;;10.90;10.10;;;32.00;69.60;;;;;;4917026;28;20893;-94
2022/07/25 10:19:45;;;;;;;11.80;11.00;;;32.00;71.00;;;;;;4923502;28;21383;-93
2022/07/25 10:22:11;;;;;;;11.07;10.37;;;31.90;69.70;;;;;;4917508;28;21061;-93
2022/07/25 10:24:39;;;;;;;11.07;10.30;;;31.90;70.00;;;;;;4910311;28;20447;-92
2022/07/25 10:27:10;;;;;;;10.80;10.00;;;32.00;70.00;;;;;;4920772;28;20527;-93
2022/07/25 10:29:37;;;;;;;10.60;9.77;;;32.10;68.20;;;;;;4944651;28;20453;-92
2022/07/25 10:32:12;;;;;;;10.80;9.97;;;32.20;68.30;;;;;;4929823;28;20996;-92
2022/07/25 10:34:38;;;;;;;11.17;10.47;;;32.20;68.30;;;;;;4936401;28;20839;-94
2022/07/25 10:37:20;;;;;;;11.13;10.33;;;32.20;67.50;;;;;;4930809;28;20441;-93
2022/07/25 10:39:48;;;;;;;11.63;10.73;;;32.30;68.40;;;;;;4938983;28;20459;-96
2022/07/25 10:42:16;;;;;;;11.30;10.40;;;32.50;67.80;;;;;;4940157;28;20442;-94
2022/07/25 10:44:49;;;;;;;11.10;10.13;;;32.70;67.40;;;;;;4945581;28;20944;-95
2022/07/25 10:47:16;;;;;;;11.97;11.07;;;32.20;68.30;;;;;;4933366;28;20538;-94
2022/07/25 10:49:45;;;;;;;12.13;11.03;;;31.90;68.10;;;;;;4959694;28;20450;-95
2022/07/25 10:52:18;;;;;;;11.57;10.77;;;31.90;69.00;;;;;;4935702;28;20462;-93
2022/07/25 10:54:59;;;;;;;11.10;10.10;;;32.30;70.20;;;;;;4931655;28;20477;-92
2022/07/25 10:57:25;;;;;;;10.80;10.00;;;32.70;67.20;;;;;;4958916;28;20561;-95
2022/07/25 10:59:51;;;;;;;11.93;11.03;;;33.10;68.00;;;;;;4944809;28;20544;-95
2022/07/25 11:02:17;;;;;;;10.37;9.67;;;33.00;64.80;;;;;;4931580;28;20438;-93
2022/07/25 11:04:45;;;;;;;10.57;9.87;;;32.80;63.80;;;;;;4961424;28;20224;-93
2022/07/25 11:07:16;;;;;;;11.03;10.33;;;33.00;66.90;;;;;;4941622;28;20442;-94
2022/07/25 11:09:43;;;;;;;9.43;8.83;;;33.10;65.40;;;;;;4938996;28;20433;-94
2022/07/25 11:12:14;;;;;;;7.70;7.20;;;33.50;60.30;;;;;;4941310;28;20877;-96
2022/07/25 11:14:41;;;;;;;7.03;6.50;;;33.70;56.80;;;;;;4974303;28;20485;-95
2022/07/25 11:17:22;;;;;;;7.80;7.30;;;33.90;55.40;;;;;;4945447;28;20458;-94
2022/07/25 11:20:08;;;;;;;8.03;7.40;;;34.10;55.20;;;;;;4975229;28;20442;-94
2022/07/25 11:22:34;;;;;;;8.37;7.87;;;34.30;56.70;;;;;;4941771;28;20441;-94
2022/07/25 11:25:02;;;;;;;7.77;7.27;;;34.50;55.90;;;;;;4945283;28;20449;-95
2022/07/25 11:27:32;;;;;;;7.53;7.03;;;34.60;54.10;;;;;;4944677;28;20441;-94
2022/07/25 11:30:15;;;;;;;7.40;6.90;;;34.60;54.40;;;;;;4962221;28;20452;-95
2022/07/25 11:32:43;;;;;;;7.67;6.97;;;34.60;51.90;;;;;;4947621;28;21275;-93
2022/07/25 11:35:10;;;;;;;7.23;6.63;;;34.70;52.80;;;;;;4951059;28;20481;-95
2022/07/25 11:37:38;;;;;;;7.40;6.90;;;34.80;52.10;;;;;;4927420;28;20178;-95
2022/07/25 11:40:05;;;;;;;5.90;5.50;;;34.50;50.80;;;;;;4931905;28;20186;-95
2022/07/25 11:42:43;;;;;;;6.10;5.80;;;33.80;51.50;;;;;;4951644;28;20442;-93
2022/07/25 11:45:21;;;;;;;6.57;5.93;;;33.30;50.90;;;;;;4943214;28;20833;-92
2022/07/25 11:48:00;;;;;;;6.30;5.90;;;33.50;51.70;;;;;;4932407;28;20448;-93
2022/07/25 11:50:31;;;;;;;6.40;6.00;;;33.70;50.30;;;;;;4952346;28;20437;-94
2022/07/25 11:53:02;;;;;;;6.10;5.70;;;34.30;50.20;;;;;;4933759;28;20437;-94
2022/07/25 11:55:30;;;;;;;7.40;6.90;;;34.80;51.60;;;;;;4928827;28;20830;-94
2022/07/25 11:58:01;;;;;;;7.20;6.70;;;34.90;50.30;;;;;;4935708;28;20473;-95
2022/07/25 12:00:28;;;;;;;6.73;6.33;;;35.20;49.10;;;;;;4934367;28;20861;-96
2022/07/25 12:03:04;;;;;;;5.83;5.43;;;35.40;47.80;;;;;;4948583;28;20186;-95
2022/07/25 12:05:32;;;;;;;5.40;5.00;;;35.40;47.30;;;;;;4932224;28;20459;-91
2022/07/25 12:08:14;;;;;;;5.80;5.50;;;35.10;46.90;;;;;;4952552;28;20186;-93
2022/07/25 12:10:40;;;;;;;5.87;5.37;;;34.50;46.70;;;;;;4955900;28;20508;-95
2022/07/25 12:13:08;;;;;;;6.67;6.07;;;34.00;47.50;;;;;;4933535;28;21054;-93
2022/07/25 12:15:39;;;;;;;5.70;5.30;;;33.90;48.30;;;;;;4930527;28;20485;-91
2022/07/25 12:18:05;;;;;;;6.67;6.23;;;34.20;48.50;;;;;;4933127;28;20446;-93
2022/07/25 12:20:33;;;;;;;6.30;5.90;;;34.50;48.40;;;;;;4944452;28;20450;-94
2022/07/25 12:23:03;;;;;;;6.40;6.00;;;34.70;47.70;;;;;;4959356;28;20581;-93
2022/07/25 12:25:30;;;;;;;6.67;6.17;;;34.90;47.90;;;;;;4924010;28;20833;-94
2022/07/25 12:27:57;;;;;;;6.13;5.73;;;34.60;48.90;;;;;;4933061;28;20445;-94
2022/07/25 12:30:23;;;;;;;6.57;6.17;;;34.90;48.30;;;;;;4931102;28;21154;-93
2022/07/25 12:32:49;;;;;;;6.73;6.33;;;35.00;47.10;;;;;;4930097;28;20655;-94
2022/07/25 12:35:15;;;;;;;7.70;7.10;;;35.00;47.60;;;;;;4924715;28;20510;-95
2022/07/25 12:37:41;;;;;;;6.53;6.13;;;34.80;46.90;;;;;;4929587;28;20228;-94
2022/07/25 12:40:08;;;;;;;6.70;6.30;;;34.80;47.70;;;;;;4910754;28;20201;-94
2022/07/25 12:42:33;;;;;;;6.63;6.23;;;35.10;46.40;;;;;;4942457;28;20466;-94
2022/07/25 12:45:01;;;;;;;6.87;6.37;;;35.80;46.00;;;;;;4942671;28;20282;-91
2022/07/25 12:47:27;;;;;;;6.73;6.23;;;36.10;45.70;;;;;;4928783;28;20285;-92
2022/07/25 12:49:53;;;;;;;7.50;7.00;;;35.90;46.20;;;;;;4934197;28;20207;-93
2022/07/25 12:52:19;;;;;;;6.33;5.93;;;35.90;45.80;;;;;;4961064;28;20238;-93
2022/07/25 12:54:45;;;;;;;7.10;6.50;;;35.80;46.90;;;;;;4929260;28;20384;-93
2022/07/25 12:57:11;;;;;;;5.87;5.57;;;36.40;48.30;;;;;;4922652;28;20347;-93
2022/07/25 12:59:37;;;;;;;6.60;6.20;;;36.60;43.10;;;;;;4929143;28;20190;-93
2022/07/25 13:02:03;;;;;;;7.20;6.70;;;36.20;43.70;;;;;;4953440;28;20187;-92
2022/07/25 13:04:29;;;;;;;6.47;5.97;;;36.80;44.70;;;;;;4928360;28;20189;-95
2022/07/25 13:06:55;;;;;;;6.77;6.07;;;36.50;43.60;;;;;;4941369;28;20186;-96
2022/07/25 13:09:21;;;;;;;6.40;6.00;;;35.90;43.80;;;;;;4929238;28;20657;-95
2022/07/25 13:11:46;;;;;;;6.60;6.20;;;35.60;45.10;;;;;;4926522;28;20191;-95
2022/07/25 13:14:12;;;;;;;7.10;6.60;;;35.00;46.00;;;;;;4932181;28;20351;-93
2022/07/25 13:16:38;;;;;;;7.40;6.90;;;34.70;46.90;;;;;;4920116;28;20190;-92
2022/07/25 13:19:04;;;;;;;7.13;6.53;;;34.60;47.60;;;;;;4941323;28;20624;-95
2022/07/25 13:21:30;;;;;;;7.10;6.60;;;34.40;47.60;;;;;;4939739;28;20803;-93
2022/07/25 13:23:56;;;;;;;7.33;6.63;;;34.20;47.60;;;;;;4925773;28;20446;-94
2022/07/25 13:26:22;;;;;;;7.17;6.67;;;34.20;47.30;;;;;;4922530;28;20234;-92
2022/07/25 13:28:47;;;;;;;6.60;6.17;;;34.20;47.30;;;;;;4932185;28;22181;-93
2022/07/25 13:31:13;;;;;;;6.87;6.47;;;34.50;47.30;;;;;;4919764;28;20182;-93
2022/07/25 13:33:39;;;;;;;6.73;6.33;;;34.90;47.60;;;;;;4957135;28;20198;-94
2022/07/25 13:36:05;;;;;;;8.20;6.30;;;34.90;47.00;;;;;;4923823;28;20202;-92
2022/07/25 13:38:33;;;;;;;7.13;6.53;;;35.10;46.80;;;;;;4918963;28;20709;-94
2022/07/25 13:40:59;;;;;;;7.33;6.93;;;35.10;45.40;;;;;;4925576;28;20201;-95
2022/07/25 13:43:24;;;;;;;6.83;6.30;;;35.30;45.60;;;;;;4915213;28;20669;-92
2022/07/25 13:45:50;;;;;;;7.60;7.00;;;35.00;46.10;;;;;;4919318;28;20193;-92
2022/07/25 13:48:15;;;;;;;8.23;7.60;;;34.30;46.90;;;;;;4917013;28;20186;-92
2022/07/25 13:50:41;;;;;;;8.03;7.43;;;34.50;47.30;;;;;;4955618;28;20727;-94
2022/07/25 13:53:07;;;;;;;7.60;7.00;;;34.30;47.20;;;;;;4952505;28;20189;-95
2022/07/25 13:55:32;;;;;;;8.27;7.60;;;33.90;47.00;;;;;;4932815;28;20218;-93
2022/07/25 13:57:58;;;;;;;9.30;8.50;;;33.90;47.20;;;;;;4932375;28;20213;-91
2022/07/25 14:00:24;;;;;;;8.50;7.97;;;33.90;47.30;;;;;;4958004;28;20277;-93
2022/07/25 14:02:49;;;;;;;9.57;8.87;;;33.50;48.00;;;;;;4952180;28;20195;-95
2022/07/25 14:05:15;;;;;;;9.30;8.50;;;33.30;49.10;;;;;;4924268;28;20186;-93
2022/07/25 14:07:44;;;;;;;9.57;8.93;;;33.30;49.50;;;;;;4924212;28;20186;-93
2022/07/25 14:10:09;;;;;;;10.10;8.97;;;33.90;49.90;;;;;;4928813;28;20237;-93
2022/07/25 14:12:38;;;;;;;9.50;8.80;;;34.10;49.00;;;;;;4929000;28;20537;-95
2022/07/25 14:15:04;;;;;;;9.23;8.40;;;33.70;49.70;;;;;;4923730;28;20249;-93
2022/07/25 14:17:31;;;;;;;10.33;9.27;;;33.60;50.30;;;;;;4945346;28;20441;-95
2022/07/25 14:19:56;;;;;;;9.00;8.40;;;33.50;51.20;;;;;;4946941;28;20524;-90
2022/07/25 14:22:23;;;;;;;9.43;8.67;;;33.30;51.20;;;;;;4927413;28;20444;-92
2022/07/25 14:24:49;;;;;;;8.90;8.30;;;33.00;50.60;;;;;;4959686;28;20244;-91